createdAt,value
2024-01-12T00:01:20.430Z,102588.31
2024-01-12T00:05:23.342Z,102588.16
2024-01-12T00:09:25.475Z,102584.94
2024-01-12T00:13:27.110Z,102576.22
2024-01-12T00:17:32.195Z,102569.81
2024-01-12T00:21:34.426Z,102562.81
2024-01-12T00:25:36.388Z,102558.53
2024-01-12T00:29:38.585Z,102555.75
2024-01-12T00:33:40.377Z,102558.19
2024-01-12T00:37:42.209Z,102559.75
2024-01-12T00:41:45.588Z,102571.09
2024-01-12T00:45:47.384Z,102561.63
2024-01-12T00:49:50.247Z,102563.25
2024-01-12T00:53:52.214Z,102573.84
2024-01-12T00:57:56.021Z,102568.69
2024-01-12T01:01:59.676Z,102570.91
2024-01-12T01:06:01.178Z,102580.19
2024-01-12T01:10:04.949Z,102579.28
2024-01-12T01:14:06.456Z,102568.78
2024-01-12T01:18:08.284Z,102567.81
2024-01-12T01:22:09.865Z,102564.59
2024-01-12T01:26:12.675Z,102561.00
2024-01-12T01:30:15.949Z,102562.69
2024-01-12T01:34:17.804Z,102565.25
2024-01-12T01:38:19.654Z,102579.81
2024-01-12T01:42:21.371Z,102586.41
2024-01-12T01:46:24.077Z,102585.41
2024-01-12T01:50:27.355Z,102571.94
2024-01-12T01:54:29.407Z,102579.84
2024-01-12T01:58:32.426Z,102580.28
2024-01-12T02:02:34.588Z,102587.53
2024-01-12T02:06:36.482Z,102588.56
2024-01-12T02:10:38.300Z,102589.09
2024-01-12T02:14:40.206Z,102586.31
2024-01-12T02:18:41.844Z,102580.28
2024-01-12T02:22:43.577Z,102580.19
2024-01-12T02:26:45.747Z,102568.81
2024-01-12T02:30:48.357Z,102585.72
2024-01-12T02:34:58.192Z,102578.19
2024-01-12T02:39:01.347Z,102577.44
2024-01-12T02:43:07.641Z,102556.28
2024-01-12T02:47:10.127Z,102565.88
2024-01-12T02:51:11.603Z,102563.91
2024-01-12T02:55:13.398Z,102574.38
2024-01-12T02:59:16.364Z,102563.81
2024-01-12T03:03:20.335Z,102550.19
2024-01-12T03:07:22.127Z,102550.84
2024-01-12T03:11:24.029Z,102551.38
2024-01-12T03:15:25.811Z,102546.59
2024-01-12T03:19:27.367Z,102545.09
2024-01-12T03:23:29.198Z,102545.34
2024-01-12T03:27:30.625Z,102541.31
2024-01-12T03:31:34.273Z,102530.69
2024-01-12T03:35:37.988Z,102536.91
2024-01-12T03:39:41.560Z,102541.09
2024-01-12T03:43:44.059Z,102540.81
2024-01-12T03:47:46.619Z,102540.97
2024-01-12T03:51:55.255Z,102537.66
2024-01-12T03:55:56.920Z,102536.53
2024-01-12T03:59:58.584Z,102537.09
2024-01-12T04:04:00.491Z,102536.16
2024-01-12T04:08:06.494Z,102529.97
2024-01-12T04:12:08.669Z,102527.44
2024-01-12T04:16:10.240Z,102535.34
2024-01-12T04:20:13.204Z,102531.56
2024-01-12T04:24:14.606Z,102532.56
2024-01-12T04:28:16.315Z,102526.28
2024-01-12T04:32:20.243Z,102539.50
2024-01-12T04:36:25.068Z,102536.69
2024-01-12T04:40:28.067Z,102516.69
2024-01-12T04:44:29.882Z,102535.94
2024-01-12T04:48:33.459Z,102529.81
2024-01-12T04:52:36.557Z,102534.84
2024-01-12T04:56:38.279Z,102518.72
2024-01-12T05:00:40.155Z,102518.53
2024-01-12T05:04:41.677Z,102515.06
2024-01-12T05:08:44.341Z,102510.56
2024-01-12T05:12:47.191Z,102508.19
2024-01-12T05:16:50.040Z,102527.25
2024-01-12T05:20:51.646Z,102523.16
2024-01-12T05:24:53.175Z,102525.47
2024-01-12T05:28:56.149Z,102513.44
2024-01-12T05:32:57.686Z,102506.38
2024-01-12T05:37:02.185Z,102509.03
2024-01-12T05:41:04.051Z,102508.94
2024-01-12T05:45:08.176Z,102514.91
2024-01-12T05:49:10.433Z,102513.41
2024-01-12T05:53:12.480Z,102516.47
2024-01-12T05:57:14.242Z,102523.34
2024-01-12T06:01:15.857Z,102532.16
2024-01-12T06:05:18.373Z,102528.03
2024-01-12T06:09:20.899Z,102530.63
2024-01-12T06:13:23.157Z,102532.19
2024-01-12T06:17:24.994Z,102539.59
2024-01-12T06:21:27.124Z,102546.41
2024-01-12T06:25:30.929Z,102542.84
2024-01-12T06:29:32.826Z,102550.13
2024-01-12T06:33:35.640Z,102553.03
2024-01-12T06:37:38.567Z,102546.41
2024-01-12T06:41:48.051Z,102550.63
2024-01-12T06:45:51.290Z,102552.84
2024-01-12T06:49:53.001Z,102556.47
2024-01-12T07:02:08.655Z,102544.97
2024-01-12T07:06:11.073Z,102550.19
2024-01-12T07:10:12.741Z,102536.34
2024-01-12T07:14:15.867Z,102542.03
2024-01-12T07:18:21.302Z,102535.69
2024-01-12T07:22:22.849Z,102532.44
2024-01-12T07:26:24.808Z,102523.00
2024-01-12T07:30:26.859Z,102521.50
2024-01-12T07:34:30.810Z,102527.88
2024-01-12T07:38:32.955Z,102528.94
2024-01-12T07:42:36.053Z,102532.25
2024-01-12T07:46:37.919Z,102529.53
2024-01-12T07:50:41.477Z,102522.81
2024-01-12T07:54:44.561Z,102531.94
2024-01-12T07:58:49.029Z,102533.22
2024-01-12T08:02:55.997Z,102545.59
2024-01-12T08:06:57.982Z,102546.38
2024-01-12T08:10:59.849Z,102558.44
2024-01-12T08:15:02.223Z,102558.44
2024-01-12T08:19:04.115Z,102562.09
2024-01-12T08:23:06.007Z,102557.13
2024-01-12T08:27:07.544Z,102553.03
2024-01-12T08:31:09.678Z,102550.38
2024-01-12T08:35:11.332Z,102539.09
2024-01-12T08:39:13.928Z,102545.72
2024-01-12T08:43:15.646Z,102540.09
2024-01-12T08:47:23.137Z,102539.56
2024-01-12T08:51:24.930Z,102549.44
2024-01-12T08:55:27.611Z,102553.47
2024-01-12T08:59:30.006Z,102544.94
2024-01-12T09:03:31.811Z,102551.34
2024-01-12T09:07:33.721Z,102561.88
2024-01-12T09:11:36.018Z,102560.09
2024-01-12T09:15:37.499Z,102563.31
2024-01-12T09:19:39.146Z,102563.09
2024-01-12T09:23:42.598Z,102564.44
2024-01-12T09:27:44.093Z,102577.22
2024-01-12T09:31:45.696Z,102578.94
2024-01-12T09:35:47.352Z,102580.84
2024-01-12T09:39:49.843Z,102583.31
2024-01-12T09:43:56.566Z,102566.22
2024-01-12T09:48:01.293Z,102568.47
2024-01-12T09:52:04.359Z,102567.88
2024-01-12T09:56:08.442Z,102580.13
2024-01-12T10:00:14.727Z,102579.53
2024-01-12T10:04:17.426Z,102580.50
2024-01-12T10:08:19.077Z,102582.19
2024-01-12T10:12:20.823Z,102582.13
2024-01-12T10:16:25.044Z,102582.59
2024-01-12T10:20:28.697Z,102578.13
2024-01-12T10:24:32.241Z,102587.84
2024-01-12T10:28:34.424Z,102589.75
2024-01-12T10:32:37.110Z,102578.94
2024-01-12T10:36:40.118Z,102570.88
2024-01-12T10:40:43.241Z,102579.75
2024-01-12T10:44:55.180Z,102565.75
2024-01-12T10:49:07.372Z,102560.78
2024-01-12T10:53:19.134Z,102557.78
2024-01-12T10:57:21.204Z,102543.97
2024-01-12T11:01:25.785Z,102538.47
2024-01-12T11:05:30.523Z,102537.13
2024-01-12T11:09:32.777Z,102526.34
2024-01-12T11:13:35.295Z,102529.13
2024-01-12T11:17:38.414Z,102528.66
2024-01-12T11:21:41.973Z,102523.09
2024-01-12T11:25:45.156Z,102533.25
2024-01-12T11:29:53.969Z,102528.59
2024-01-12T11:34:02.379Z,102536.34
2024-01-12T11:38:10.224Z,102527.72
2024-01-12T11:42:12.413Z,102526.53
2024-01-12T11:46:15.183Z,102506.00
2024-01-12T11:50:21.720Z,102507.50
2024-01-12T11:54:24.546Z,102503.97
2024-01-12T11:58:31.416Z,102503.69
2024-01-12T12:02:36.831Z,102506.34
2024-01-12T12:06:38.655Z,102510.03
2024-01-12T12:10:44.064Z,102493.31
2024-01-12T12:14:58.747Z,102502.91
2024-01-12T12:19:02.082Z,102492.53
2024-01-12T12:23:05.395Z,102483.47
2024-01-12T12:27:08.572Z,102483.94
2024-01-12T12:31:12.189Z,102481.03
2024-01-12T12:35:15.580Z,102459.75
2024-01-12T12:39:21.234Z,102460.97
2024-01-12T12:43:23.658Z,102440.41
2024-01-12T12:47:28.618Z,102441.59
2024-01-12T12:51:31.299Z,102437.13
2024-01-12T12:55:32.818Z,102429.66
2024-01-12T12:59:37.096Z,102415.25
2024-01-12T13:03:39.211Z,102423.31
2024-01-12T13:07:41.405Z,102424.88
2024-01-12T13:11:43.223Z,102418.91
2024-01-12T13:15:44.867Z,102402.88
2024-01-12T13:19:46.410Z,102399.63
2024-01-12T13:23:48.058Z,102393.34
2024-01-12T13:27:49.539Z,102377.94
2024-01-12T13:31:51.465Z,102381.47
2024-01-12T13:35:54.948Z,102382.41
2024-01-12T13:40:00.055Z,102379.34
2024-01-12T13:44:04.908Z,102373.16
2024-01-12T13:48:11.068Z,102360.00
2024-01-12T13:52:13.698Z,102356.25
2024-01-12T13:56:15.619Z,102360.84
2024-01-12T14:00:29.407Z,102366.13
2024-01-12T14:04:32.566Z,102374.03
2024-01-12T14:08:38.508Z,102369.72
2024-01-12T14:12:41.023Z,102372.72
2024-01-12T14:16:43.044Z,102369.88
2024-01-12T14:20:44.506Z,102378.13
2024-01-12T14:24:51.095Z,102391.75
2024-01-12T14:28:55.862Z,102388.84
2024-01-12T14:32:58.751Z,102391.81
2024-01-12T14:37:00.551Z,102395.31
2024-01-12T14:41:02.247Z,102400.19
2024-01-12T14:45:06.466Z,102393.22
2024-01-12T14:49:12.092Z,102384.41
2024-01-12T14:53:14.021Z,102395.84
2024-01-12T14:57:17.656Z,102387.69
2024-01-12T15:01:20.079Z,102384.03
2024-01-12T15:05:24.297Z,102383.91
2024-01-12T15:09:26.246Z,102392.84
2024-01-12T15:13:29.222Z,102381.84
2024-01-12T15:17:31.819Z,102382.03
2024-01-12T15:21:34.932Z,102387.22
2024-01-12T15:25:36.770Z,102379.06
2024-01-12T15:29:38.375Z,102383.78
2024-01-12T15:33:46.155Z,102384.16
2024-01-12T15:37:48.100Z,102379.75
2024-01-12T15:41:54.524Z,102368.66
2024-01-12T15:45:56.809Z,102356.84
2024-01-12T15:49:58.484Z,102363.34
2024-01-12T15:54:01.035Z,102366.81
2024-01-12T15:58:04.305Z,102361.84
2024-01-12T16:02:06.665Z,102366.94
2024-01-12T16:06:09.639Z,102367.44
2024-01-12T16:10:11.340Z,102366.88
2024-01-12T16:14:13.344Z,102364.66
2024-01-12T16:18:17.693Z,102363.16
2024-01-12T16:22:19.391Z,102356.31
2024-01-12T16:26:22.795Z,102363.66
2024-01-12T16:30:25.998Z,102355.50
2024-01-12T16:34:27.884Z,102360.84
2024-01-12T16:38:30.263Z,102359.91
2024-01-12T16:42:31.825Z,102366.06
2024-01-12T16:46:33.480Z,102363.84
2024-01-12T16:50:36.135Z,102368.25
2024-01-12T16:54:37.602Z,102362.41
2024-01-12T16:58:42.525Z,102354.88
2024-01-12T17:02:45.479Z,102352.59
2024-01-12T17:06:53.608Z,102352.53
2024-01-12T17:10:56.101Z,102361.91
2024-01-12T17:14:57.807Z,102359.81
2024-01-12T17:19:00.251Z,102358.75
2024-01-12T17:23:01.951Z,102353.53
2024-01-12T17:27:07.379Z,102359.38
2024-01-12T17:31:10.147Z,102344.44
2024-01-12T17:35:13.289Z,102343.34
2024-01-12T17:39:18.866Z,102343.84
2024-01-12T17:43:22.169Z,102339.16
2024-01-12T17:47:23.982Z,102340.59
2024-01-12T17:51:27.042Z,102332.66
2024-01-12T17:55:29.921Z,102333.88
2024-01-12T17:59:35.249Z,102344.44
2024-01-12T18:03:36.803Z,102332.75
2024-01-12T18:07:40.717Z,102343.31
2024-01-12T18:11:45.313Z,102328.41
2024-01-12T18:15:49.929Z,102336.03
2024-01-12T18:19:51.857Z,102317.47
2024-01-12T18:23:54.970Z,102317.38
2024-01-12T18:27:56.733Z,102330.47
2024-01-12T18:32:00.959Z,102324.88
2024-01-12T18:36:03.345Z,102333.13
2024-01-12T18:40:05.553Z,102330.72
2024-01-12T18:44:07.003Z,102323.50
2024-01-12T18:48:08.786Z,102323.84
2024-01-12T18:52:12.261Z,102330.09
2024-01-12T18:56:17.380Z,102323.38
2024-01-12T19:00:19.563Z,102315.28
2024-01-12T19:04:26.314Z,102324.53
2024-01-12T19:08:31.490Z,102321.09
2024-01-12T19:12:32.971Z,102320.59
2024-01-12T19:16:36.115Z,102317.59
2024-01-12T19:20:39.832Z,102319.78
2024-01-12T19:24:49.996Z,102312.78
2024-01-12T19:28:51.868Z,102314.22
2024-01-12T19:32:53.584Z,102316.03
2024-01-12T19:37:00.110Z,102312.91
2024-01-12T19:41:03.012Z,102311.13
2024-01-12T19:45:13.275Z,102306.75
2024-01-12T19:49:16.228Z,102296.09
2024-01-12T19:53:20.936Z,102296.00
2024-01-12T19:57:23.836Z,102292.31
2024-01-12T20:01:31.489Z,102289.84
2024-01-12T20:05:35.589Z,102284.25
2024-01-12T20:09:42.831Z,102285.63
2024-01-12T20:13:44.357Z,102278.00
2024-01-12T20:17:46.439Z,102280.41
2024-01-12T20:21:49.453Z,102280.56
2024-01-12T20:25:51.810Z,102269.16
2024-01-12T20:29:53.742Z,102270.84
2024-01-12T20:33:55.476Z,102267.28
2024-01-12T20:37:57.046Z,102263.69
2024-01-12T20:42:05.339Z,102268.31
2024-01-12T20:46:07.001Z,102267.56
2024-01-12T20:50:08.652Z,102263.75
2024-01-12T20:54:10.606Z,102256.72
2024-01-12T20:58:12.808Z,102260.84
2024-01-12T21:02:16.932Z,102256.97
2024-01-12T21:06:20.342Z,102263.31
2024-01-12T21:10:23.715Z,102255.44
2024-01-12T21:14:29.718Z,102251.00
2024-01-12T21:18:36.126Z,102249.28
2024-01-12T21:22:42.942Z,102246.72
2024-01-12T21:26:45.070Z,102244.06
2024-01-12T21:30:46.780Z,102236.09
2024-01-12T21:34:50.883Z,102234.44
2024-01-12T21:38:55.252Z,102231.22
2024-01-12T21:42:58.518Z,102237.09
2024-01-12T21:47:00.428Z,102236.53
2024-01-12T21:51:02.012Z,102222.38
2024-01-12T21:55:06.247Z,102230.59
2024-01-12T21:59:09.190Z,102225.19
2024-01-12T22:03:10.959Z,102213.78
2024-01-12T22:07:13.984Z,102210.31
2024-01-12T22:11:15.818Z,102211.78
2024-01-12T22:15:17.598Z,102206.97
2024-01-12T22:19:19.544Z,102207.06
2024-01-12T22:23:21.350Z,102206.59
2024-01-12T22:27:22.925Z,102208.16
2024-01-12T22:31:27.677Z,102194.84
2024-01-12T22:35:30.057Z,102199.19
2024-01-12T22:39:31.642Z,102200.72
2024-01-12T22:43:33.474Z,102189.34
2024-01-12T22:47:36.371Z,102180.34
2024-01-12T22:51:38.174Z,102177.25
2024-01-12T22:55:39.839Z,102173.75
2024-01-12T22:59:43.921Z,102167.38
2024-01-12T23:03:46.605Z,102161.84
2024-01-12T23:07:48.441Z,102156.34
2024-01-12T23:11:51.668Z,102150.50
2024-01-12T23:15:53.690Z,102151.47
2024-01-12T23:19:55.679Z,102138.13
2024-01-12T23:23:57.511Z,102147.03
2024-01-12T23:27:59.808Z,102138.34
2024-01-12T23:32:01.906Z,102140.22
2024-01-12T23:36:05.571Z,102127.97
2024-01-12T23:40:14.763Z,102116.00
2024-01-12T23:44:16.812Z,102113.75
2024-01-12T23:48:27.471Z,102110.19
2024-01-12T23:52:37.480Z,102110.50
2024-01-12T23:56:39.812Z,102119.31
